Terminal Aerodrome Forecast
Issued by NWS North Platte, NE

Home | Current Version | Previous Version | Graphics & Text | Print | Product List | Glossary On
Versions: 1 2 3 4 5 6 7 8 9 10 11 12 13 14 15
000
FTUS43 KLBF 261742 RRA
TAFVTN
TAF
KVTN 261742Z 2618/2718 17010KT P6SM VCSH BKN150
     FM262000 17012KT P6SM -SHRA OVC090
     FM270100 15008KT P6SM BKN090
     FM271400 20008KT P6SM SCT150=

USA.gov is the U.S. government's official web portal to all federal, state and local government web resources and services.